Time;durP1;ratioP1;P1;durP2;ratioP2;P2;SDS_P1;SDS_P2;PMS_P1;PMS_P2;Temp;Humidity;BMP_temperature;BMP_pressure;BME280_temperature;BME280_humidity;BME280_pressure;Samples;Min_cycle;Max_cycle;Signal;HPM_P1;HPM_P2
2021/03/18 00:00:37;;;;;;;7.07;2.78;;;7.60;82.30;;;;;;5010786;28;20022;-76
2021/03/18 00:03:04;;;;;;;8.80;2.05;;;7.60;81.90;;;;;;5012894;28;20121;-76
2021/03/18 00:05:30;;;;;;;6.80;1.85;;;7.50;83.10;;;;;;5013030;28;20026;-77
2021/03/18 00:07:56;;;;;;;9.05;2.75;;;7.50;80.30;;;;;;5013698;28;20036;-76
2021/03/18 00:10:21;;;;;;;8.93;2.13;;;7.50;81.30;;;;;;5013282;28;20033;-76
2021/03/18 00:12:47;;;;;;;9.43;2.33;;;7.50;82.10;;;;;;5013438;28;20033;-76
2021/03/18 00:15:14;;;;;;;13.10;3.08;;;7.60;83.00;;;;;;5013325;28;20610;-76
2021/03/18 00:17:39;;;;;;;7.00;1.88;;;7.50;84.40;;;;;;5012773;28;20041;-76
2021/03/18 00:20:09;;;;;;;9.25;2.10;;;7.50;83.20;;;;;;5013290;28;20029;-76
2021/03/18 00:22:40;;;;;;;9.70;2.03;;;7.50;84.40;;;;;;5013277;28;20026;-76
2021/03/18 00:25:11;;;;;;;7.10;2.47;;;7.50;85.50;;;;;;5011376;28;20281;-76
2021/03/18 00:27:38;;;;;;;6.13;2.05;;;7.50;85.80;;;;;;5012635;28;20014;-76
2021/03/18 00:30:07;;;;;;;7.78;2.83;;;7.40;85.10;;;;;;5011866;28;20033;-76
2021/03/18 00:32:34;;;;;;;6.68;1.77;;;7.40;85.90;;;;;;5005091;28;20034;-76
2021/03/18 00:35:00;;;;;;;9.10;3.03;;;7.40;86.90;;;;;;5007603;28;20471;-76
2021/03/18 00:37:26;;;;;;;6.28;2.38;;;7.40;87.20;;;;;;5010898;28;20148;-76
2021/03/18 00:39:56;;;;;;;8.32;2.03;;;7.40;85.70;;;;;;5012660;28;20533;-76
2021/03/18 00:42:22;;;;;;;6.43;1.80;;;7.40;86.70;;;;;;5012225;28;20026;-76
2021/03/18 00:44:49;;;;;;;12.05;2.75;;;7.40;87.10;;;;;;5012859;28;20025;-76
2021/03/18 00:47:15;;;;;;;10.63;3.03;;;7.50;87.30;;;;;;5013043;28;20033;-76
2021/03/18 00:49:41;;;;;;;8.30;2.00;;;7.50;86.10;;;;;;5012614;28;20121;-77
2021/03/18 00:52:07;;;;;;;7.07;2.20;;;7.50;85.00;;;;;;5013092;28;20105;-76
2021/03/18 00:54:32;;;;;;;6.47;2.10;;;7.50;85.90;;;;;;5011523;28;20426;-76
2021/03/18 00:56:58;;;;;;;9.13;2.75;;;7.40;85.30;;;;;;5003841;28;20415;-76
2021/03/18 00:59:24;;;;;;;6.70;1.80;;;7.40;87.30;;;;;;5012113;28;20095;-76
2021/03/18 01:01:49;;;;;;;6.40;2.15;;;7.40;84.70;;;;;;5005449;28;21420;-77
2021/03/18 01:04:15;;;;;;;9.07;1.83;;;7.40;86.10;;;;;;4993731;28;20022;-76
2021/03/18 01:06:41;;;;;;;7.60;2.28;;;7.30;83.80;;;;;;4995971;28;20034;-76
2021/03/18 01:09:08;;;;;;;8.70;2.58;;;7.30;83.50;;;;;;5005717;28;20021;-76
2021/03/18 01:11:36;;;;;;;12.23;3.17;;;7.40;81.80;;;;;;4997384;28;20050;-76
2021/03/18 01:14:11;;;;;;;8.00;1.85;;;7.30;81.20;;;;;;5011985;28;20033;-76
2021/03/18 01:16:50;;;;;;;8.10;2.28;;;7.20;80.90;;;;;;5012428;28;20025;-77
2021/03/18 01:19:18;;;;;;;7.38;1.92;;;7.20;83.60;;;;;;5012605;28;20033;-76
2021/03/18 01:21:47;;;;;;;8.32;2.03;;;7.20;83.60;;;;;;5012040;28;20462;-76
2021/03/18 01:24:14;;;;;;;7.53;2.13;;;7.20;82.70;;;;;;5012899;28;20109;-76
2021/03/18 01:26:41;;;;;;;5.25;1.50;;;7.20;83.90;;;;;;5012282;28;20026;-76
2021/03/18 01:29:07;;;;;;;7.93;2.15;;;7.20;83.20;;;;;;5011387;28;20052;-77
2021/03/18 01:31:35;;;;;;;8.88;1.77;;;7.10;81.40;;;;;;5011220;28;20038;-76
2021/03/18 01:34:01;;;;;;;8.77;1.80;;;7.10;79.40;;;;;;5012067;28;20029;-76
2021/03/18 01:36:31;;;;;;;4.20;1.52;;;7.20;79.70;;;;;;5012693;28;20490;-77
2021/03/18 01:38:56;;;;;;;6.15;1.90;;;7.10;79.60;;;;;;5012172;28;20018;-76
2021/03/18 01:41:24;;;;;;;10.40;1.50;;;7.10;81.40;;;;;;5011613;28;20113;-76
2021/03/18 01:43:50;;;;;;;8.50;2.08;;;7.10;78.50;;;;;;5012148;28;20028;-77
2021/03/18 01:46:17;;;;;;;9.73;2.00;;;7.00;78.70;;;;;;5012245;28;20017;-77
2021/03/18 01:48:43;;;;;;;11.93;2.20;;;7.00;78.70;;;;;;5014181;28;20044;-77
2021/03/18 01:51:10;;;;;;;8.18;2.00;;;7.00;79.00;;;;;;5015718;28;20137;-77
2021/03/18 01:53:36;;;;;;;11.27;2.67;;;7.00;79.30;;;;;;5015400;28;20035;-76
2021/03/18 01:56:04;;;;;;;3.38;1.75;;;7.00;80.80;;;;;;5015417;28;20033;-76
2021/03/18 01:58:31;;;;;;;11.55;2.35;;;6.90;79.80;;;;;;5015889;28;20036;-77
2021/03/18 02:01:05;;;;;;;7.82;2.95;;;6.90;77.90;;;;;;5014839;28;20072;-77
2021/03/18 02:03:31;;;;;;;6.82;1.80;;;6.90;79.00;;;;;;5015428;28;20473;-77
2021/03/18 02:05:56;;;;;;;5.72;1.67;;;6.90;82.00;;;;;;5015415;28;20034;-77
2021/03/18 02:08:22;;;;;;;13.18;1.85;;;7.00;82.40;;;;;;5015426;28;20034;-77
2021/03/18 02:10:50;;;;;;;10.00;2.78;;;6.90;84.30;;;;;;5015573;28;20022;-76
2021/03/18 02:13:17;;;;;;;7.38;1.98;;;6.90;85.40;;;;;;5015572;28;20034;-76
2021/03/18 02:15:47;;;;;;;9.52;1.95;;;6.90;86.60;;;;;;5015370;28;20025;-77
2021/03/18 02:18:16;;;;;;;10.10;2.70;;;6.90;87.30;;;;;;5012748;28;20044;-77
2021/03/18 02:21:13;;;;;;;9.90;2.58;;;6.90;88.80;;;;;;5015330;28;20490;-77
2021/03/18 02:23:50;;;;;;;7.47;1.90;;;6.90;88.20;;;;;;5014938;28;20033;-77
2021/03/18 02:26:52;;;;;;;7.95;2.05;;;6.80;90.60;;;;;;5014936;28;20033;-76
2021/03/18 02:29:27;;;;;;;6.95;2.03;;;6.80;90.60;;;;;;5015077;28;20048;-77
2021/03/18 02:32:11;;;;;;;8.88;1.75;;;6.70;90.20;;;;;;5009915;28;20037;-77
2021/03/18 02:34:58;;;;;;;6.95;1.63;;;6.50;90.60;;;;;;5015217;28;20096;-77
2021/03/18 02:37:29;;;;;;;6.22;1.95;;;6.40;91.70;;;;;;5009067;28;20390;-77
2021/03/18 02:40:18;;;;;;;8.85;1.85;;;6.30;91.60;;;;;;5014587;28;20153;-77
2021/03/18 02:42:48;;;;;;;9.93;2.00;;;6.30;91.20;;;;;;5013760;28;20451;-76
2021/03/18 02:45:15;;;;;;;6.20;1.50;;;6.20;91.30;;;;;;5015078;28;20030;-76
2021/03/18 02:47:42;;;;;;;5.80;1.30;;;6.20;92.10;;;;;;5014706;28;20108;-76
2021/03/18 02:50:09;;;;;;;7.05;1.92;;;6.20;93.00;;;;;;5014579;28;20069;-76
2021/03/18 02:52:39;;;;;;;13.02;2.83;;;6.20;93.40;;;;;;5013869;28;20022;-77
2021/03/18 02:55:07;;;;;;;3.55;1.27;;;6.10;93.70;;;;;;5014601;28;20033;-76
2021/03/18 02:57:34;;;;;;;3.45;1.30;;;6.00;94.60;;;;;;5014400;28;20410;-77
2021/03/18 03:00:03;;;;;;;6.15;1.48;;;6.00;95.30;;;;;;5013310;28;20030;-76
2021/03/18 03:02:30;;;;;;;7.55;1.73;;;6.00;95.30;;;;;;5013445;28;20022;-76
2021/03/18 03:04:58;;;;;;;5.45;1.83;;;6.00;95.50;;;;;;5014274;28;20470;-76
2021/03/18 03:07:26;;;;;;;7.18;2.40;;;6.00;96.00;;;;;;5013556;28;20040;-77
2021/03/18 03:09:53;;;;;;;7.25;1.65;;;6.00;96.40;;;;;;5014134;28;20441;-76
2021/03/18 03:12:23;;;;;;;4.28;1.42;;;6.00;96.90;;;;;;5014278;28;20117;-77
2021/03/18 03:14:50;;;;;;;;;;;6.00;96.40;;;;;;5014538;28;20034;-77
2021/03/18 03:17:20;;;;;;;5.32;1.63;;;5.90;97.50;;;;;;5012977;28;19932;-76
2021/03/18 03:19:46;;;;;;;4.80;1.45;;;5.80;97.60;;;;;;5014405;28;20062;-77
2021/03/18 03:22:14;;;;;;;8.23;1.50;;;5.80;97.80;;;;;;5013857;28;20033;-78
2021/03/18 03:24:43;;;;;;;7.22;1.92;;;5.90;97.70;;;;;;5014381;28;20060;-76
2021/03/18 03:27:10;;;;;;;4.30;1.20;;;5.80;98.60;;;;;;5013065;28;20026;-76
2021/03/18 03:29:36;;;;;;;5.75;1.77;;;5.90;98.90;;;;;;5014343;28;20030;-76
2021/03/18 03:32:05;;;;;;;9.52;2.00;;;5.90;99.40;;;;;;5028389;28;20061;-77
2021/03/18 03:34:32;;;;;;;5.75;1.50;;;5.90;98.50;;;;;;5013980;28;20021;-76
2021/03/18 03:36:58;;;;;;;4.95;1.42;;;5.90;98.30;;;;;;5013813;28;20018;-76
2021/03/18 03:39:24;;;;;;;7.53;1.55;;;5.80;98.90;;;;;;5013776;28;20034;-77
2021/03/18 03:41:50;;;;;;;7.65;2.17;;;5.80;97.90;;;;;;5014006;28;20384;-77
2021/03/18 03:44:16;;;;;;;7.50;1.75;;;5.80;97.60;;;;;;5014048;28;20053;-76
2021/03/18 03:46:41;;;;;;;3.78;1.52;;;5.80;97.90;;;;;;5014000;28;20041;-77
2021/03/18 03:49:09;;;;;;;3.35;0.93;;;5.80;98.70;;;;;;5012780;28;20113;-76
2021/03/18 03:52:04;;;;;;;4.97;2.10;;;5.80;97.60;;;;;;5013012;28;20050;-76
2021/03/18 03:54:32;;;;;;;9.50;1.45;;;5.80;97.70;;;;;;5013605;28;20501;-76
2021/03/18 03:57:07;;;;;;;8.48;1.73;;;5.80;98.20;;;;;;5013642;28;20048;-76
2021/03/18 03:59:37;;;;;;;7.65;1.67;;;5.80;98.50;;;;;;5013434;28;20052;-76
2021/03/18 04:02:04;;;;;;;10.02;1.70;;;5.70;98.00;;;;;;5013363;28;20079;-76
2021/03/18 04:04:37;;;;;;;5.35;1.45;;;5.50;98.00;;;;;;5012830;28;20084;-76
2021/03/18 04:07:15;;;;;;;5.40;1.67;;;5.50;98.70;;;;;;5013427;28;20018;-76
2021/03/18 04:09:44;;;;;;;5.28;1.13;;;5.50;99.20;;;;;;5013394;28;20505;-76
2021/03/18 04:12:13;;;;;;;4.40;2.67;;;5.50;99.30;;;;;;5013228;28;20028;-76
2021/03/18 04:14:46;;;;;;;7.63;1.83;;;5.40;98.60;;;;;;5013654;28;20022;-76
2021/03/18 04:17:13;;;;;;;8.77;1.88;;;5.40;99.40;;;;;;5012507;28;20501;-77
2021/03/18 04:19:44;;;;;;;6.22;1.60;;;5.50;99.60;;;;;;5013156;28;20030;-76
2021/03/18 04:22:11;;;;;;;4.57;1.50;;;5.50;99.90;;;;;;5012978;28;20022;-76
2021/03/18 04:24:38;;;;;;;6.82;1.33;;;5.50;99.80;;;;;;5011629;28;20096;-76
2021/03/18 04:27:04;;;;;;;6.15;1.80;;;5.40;98.80;;;;;;5012885;28;20014;-76
2021/03/18 04:29:32;;;;;;;5.72;1.67;;;5.40;99.20;;;;;;5011284;28;20390;-76
2021/03/18 04:31:59;;;;;;;3.63;1.35;;;5.30;99.20;;;;;;5009762;28;20121;-76
2021/03/18 04:34:26;;;;;;;7.25;2.65;;;5.30;99.60;;;;;;5006279;28;20029;-77
2021/03/18 04:36:55;;;;;;;13.13;3.63;;;5.40;99.90;;;;;;4996358;28;20026;-76
2021/03/18 04:39:21;;;;;;;5.85;1.38;;;5.50;99.90;;;;;;5002215;28;20064;-77
2021/03/18 04:41:47;;;;;;;4.22;1.60;;;5.50;99.90;;;;;;5003534;28;20033;-76
2021/03/18 04:44:14;;;;;;;4.97;1.33;;;5.60;99.90;;;;;;5012744;28;20075;-76
2021/03/18 04:46:46;;;;;;;14.32;3.25;;;5.60;99.90;;;;;;5013274;28;20022;-76
2021/03/18 04:49:15;;;;;;;5.10;1.83;;;5.60;99.90;;;;;;5011313;28;20391;-77
2021/03/18 04:51:45;;;;;;;6.65;1.50;;;5.50;99.90;;;;;;4999059;28;20042;-76
2021/03/18 04:54:11;;;;;;;5.18;1.98;;;5.60;99.90;;;;;;5001142;28;20040;-77
2021/03/18 04:56:41;;;;;;;6.88;1.83;;;5.60;99.90;;;;;;5006982;28;20018;-76
2021/03/18 04:59:08;;;;;;;5.28;1.35;;;5.60;99.90;;;;;;5000885;28;20061;-77
2021/03/18 05:01:35;;;;;;;4.78;2.08;;;5.60;99.90;;;;;;5008329;28;20022;-76
2021/03/18 05:04:04;;;;;;;5.43;1.95;;;5.60;99.90;;;;;;5000563;28;20022;-77
2021/03/18 05:06:32;;;;;;;7.43;1.73;;;5.60;99.90;;;;;;5004419;28;20030;-76
2021/03/18 05:09:02;;;;;;;7.10;1.50;;;5.60;99.90;;;;;;4998928;28;20018;-76
2021/03/18 05:11:28;;;;;;;6.63;1.30;;;5.60;99.90;;;;;;5009663;28;20385;-76
2021/03/18 05:13:54;;;;;;;8.95;1.55;;;5.70;99.90;;;;;;5012881;28;20118;-77
2021/03/18 05:16:20;;;;;;;5.18;2.30;;;5.60;99.90;;;;;;5012251;28;20117;-77
2021/03/18 05:18:46;;;;;;;5.30;1.65;;;5.60;99.90;;;;;;5012212;28;20030;-77
2021/03/18 05:21:13;;;;;;;7.22;2.17;;;5.60;99.90;;;;;;5011313;28;20037;-76
2021/03/18 05:23:40;;;;;;;7.22;2.22;;;5.70;99.90;;;;;;5014411;28;20021;-77
2021/03/18 05:26:07;;;;;;;5.75;1.55;;;5.60;99.90;;;;;;5016194;28;20033;-76
2021/03/18 05:28:33;;;;;;;6.43;1.75;;;5.70;99.90;;;;;;5016333;28;20030;-76
2021/03/18 05:30:59;;;;;;;7.40;1.85;;;5.70;99.90;;;;;;5013627;28;20038;-77
2021/03/18 05:33:24;;;;;;;4.30;2.08;;;5.70;99.90;;;;;;5011840;28;20034;-77
2021/03/18 05:35:50;;;;;;;9.07;1.85;;;5.70;99.90;;;;;;5015873;28;20100;-76
2021/03/18 05:38:16;;;;;;;8.00;1.90;;;5.70;99.90;;;;;;5012721;28;20058;-77
2021/03/18 05:40:45;;;;;;;9.65;2.95;;;5.70;99.90;;;;;;5015583;28;20061;-77
2021/03/18 05:43:11;;;;;;;6.60;1.80;;;5.70;99.90;;;;;;5015480;28;20034;-76
2021/03/18 05:45:37;;;;;;;5.80;1.95;;;5.70;99.90;;;;;;5015154;28;20037;-76
2021/03/18 05:48:03;;;;;;;9.90;2.15;;;5.60;99.90;;;;;;5015746;28;20096;-76
2021/03/18 05:50:30;;;;;;;6.97;2.38;;;5.70;99.90;;;;;;5015292;28;20050;-77
2021/03/18 05:52:59;;;;;;;6.65;2.30;;;5.70;99.90;;;;;;5013806;28;20031;-78
2021/03/18 05:55:25;;;;;;;6.00;2.10;;;5.70;99.90;;;;;;5015163;28;20029;-79
2021/03/18 05:57:51;;;;;;;8.88;2.22;;;5.70;99.90;;;;;;5016101;28;20269;-76
2021/03/18 06:00:18;;;;;;;7.13;2.10;;;5.70;99.90;;;;;;5012113;28;20049;-76
2021/03/18 06:02:44;;;;;;;8.63;2.13;;;5.70;99.90;;;;;;5007036;28;20022;-76
2021/03/18 06:05:12;;;;;;;8.02;2.22;;;5.70;99.90;;;;;;5015178;28;20034;-76
2021/03/18 06:07:40;;;;;;;4.93;1.98;;;5.70;99.90;;;;;;5015368;28;20361;-76
2021/03/18 06:10:12;;;;;;;8.05;2.30;;;5.70;99.90;;;;;;5015588;28;20030;-76
2021/03/18 06:12:39;;;;;;;7.65;2.80;;;5.70;99.90;;;;;;5014374;28;20470;-76
2021/03/18 06:15:14;;;;;;;8.45;2.22;;;5.80;99.90;;;;;;5010344;28;20014;-76
2021/03/18 06:17:41;;;;;;;9.13;2.55;;;5.80;99.90;;;;;;5015039;28;20120;-76
2021/03/18 06:20:12;;;;;;;10.50;2.80;;;5.80;99.90;;;;;;5014888;28;20022;-74
2021/03/18 06:22:46;;;;;;;9.75;3.35;;;5.70;99.90;;;;;;5014862;28;20375;-76
2021/03/18 06:25:32;;;;;;;5.93;2.15;;;5.70;99.90;;;;;;5015213;28;20387;-76
2021/03/18 06:28:24;;;;;;;9.88;2.70;;;5.70;99.80;;;;;;5015138;28;20026;-76
2021/03/18 06:31:12;;;;;;;5.53;2.63;;;5.80;99.90;;;;;;5014399;28;20522;-76
2021/03/18 06:33:42;;;;;;;7.47;2.13;;;5.80;98.90;;;;;;5013563;28;20030;-76
2021/03/18 06:36:29;;;;;;;7.07;2.50;;;5.90;98.80;;;;;;5014285;28;20053;-76
2021/03/18 06:39:06;;;;;;;11.68;2.72;;;6.00;97.50;;;;;;5015429;28;20038;-76
2021/03/18 06:41:40;;;;;;;7.88;2.40;;;5.90;97.70;;;;;;5014730;28;20024;-76
2021/03/18 06:44:19;;;;;;;7.65;2.15;;;5.80;97.50;;;;;;5014853;28;20036;-76
2021/03/18 06:46:45;;;;;;;6.35;2.15;;;5.80;97.50;;;;;;5015053;28;20033;-76
2021/03/18 06:49:12;;;;;;;8.07;2.83;;;5.80;97.80;;;;;;5015025;28;20030;-76
2021/03/18 06:51:39;;;;;;;7.70;3.70;;;5.80;97.60;;;;;;5014366;28;20054;-76
2021/03/18 06:54:18;;;;;;;6.82;2.45;;;5.80;97.90;;;;;;5015048;28;20018;-76
2021/03/18 06:56:56;;;;;;;9.93;2.53;;;5.80;97.70;;;;;;5014262;28;20021;-76
2021/03/18 06:59:39;;;;;;;7.63;2.60;;;5.70;98.30;;;;;;5014241;28;20418;-75
2021/03/18 07:02:13;;;;;;;4.72;1.80;;;5.70;97.30;;;;;;5014786;28;20101;-76
2021/03/18 07:04:50;;;;;;;6.57;2.08;;;5.70;96.20;;;;;;5014375;28;20014;-76
2021/03/18 07:07:19;;;;;;;8.40;1.98;;;5.70;97.70;;;;;;5014624;28;20100;-76
2021/03/18 07:09:47;;;;;;;4.82;2.17;;;5.80;97.60;;;;;;5014020;28;20489;-77
2021/03/18 07:12:18;;;;;;;12.20;2.53;;;5.80;97.70;;;;;;5014965;28;20560;-77
2021/03/18 07:14:49;;;;;;;8.85;2.13;;;5.80;97.00;;;;;;5014283;28;20084;-78
2021/03/18 07:17:27;;;;;;;7.90;1.85;;;5.70;97.70;;;;;;5014605;28;20112;-76
2021/03/18 07:20:09;;;;;;;9.32;2.30;;;5.70;97.60;;;;;;5014089;28;20498;-76
2021/03/18 07:22:42;;;;;;;6.20;2.22;;;5.70;98.10;;;;;;5014410;28;20026;-75
2021/03/18 07:25:10;;;;;;;9.18;2.38;;;5.70;97.90;;;;;;5014454;28;20018;-76
2021/03/18 07:28:00;;;;;;;6.38;1.60;;;5.70;98.00;;;;;;5014111;28;20469;-76
2021/03/18 07:30:32;;;;;;;4.85;1.98;;;5.70;98.50;;;;;;5014329;28;20385;-76
2021/03/18 07:32:59;;;;;;;7.40;2.13;;;5.60;97.90;;;;;;5013966;28;20049;-76
2021/03/18 07:35:27;;;;;;;8.95;2.78;;;5.60;98.80;;;;;;5014006;28;20026;-76
2021/03/18 07:37:53;;;;;;;9.77;2.63;;;5.60;97.90;;;;;;5013757;28;20064;-76
2021/03/18 07:40:20;;;;;;;6.65;2.00;;;5.50;97.70;;;;;;5013943;28;20025;-76
2021/03/18 07:42:51;;;;;;;11.38;2.40;;;5.50;98.20;;;;;;5013843;28;20045;-76
2021/03/18 07:45:19;;;;;;;7.30;2.83;;;5.60;98.00;;;;;;5013593;28;20482;-76
2021/03/18 07:47:46;;;;;;;13.02;3.38;;;5.40;98.10;;;;;;5013973;28;20025;-76
2021/03/18 07:50:14;;;;;;;4.78;1.83;;;5.50;97.00;;;;;;5013776;28;20054;-76
2021/03/18 07:52:44;;;;;;;6.93;2.25;;;5.40;96.80;;;;;;5013904;28;20026;-76
2021/03/18 07:55:14;;;;;;;10.93;2.17;;;5.50;97.00;;;;;;5013862;28;20030;-76
2021/03/18 07:57:46;;;;;;;7.47;2.80;;;5.40;97.80;;;;;;5013522;28;20026;-76
2021/03/18 08:00:15;;;;;;;8.50;2.20;;;5.50;97.30;;;;;;5013705;28;20022;-76
2021/03/18 08:02:41;;;;;;;5.80;1.73;;;5.60;98.20;;;;;;5013792;28;20017;-75
2021/03/18 08:05:07;;;;;;;7.28;2.17;;;5.60;97.30;;;;;;5013660;28;20018;-76
2021/03/18 08:07:45;;;;;;;6.53;2.60;;;5.70;96.90;;;;;;5013528;28;20026;-76
2021/03/18 08:10:21;;;;;;;6.50;2.03;;;5.70;97.10;;;;;;4993870;28;20486;-76
2021/03/18 08:12:58;;;;;;;9.60;2.67;;;5.80;97.80;;;;;;5013050;28;20072;-76
2021/03/18 08:15:34;;;;;;;6.60;1.80;;;5.90;96.20;;;;;;5013539;28;20112;-76
2021/03/18 08:18:33;;;;;;;5.80;2.72;;;5.90;95.80;;;;;;5013452;28;20414;-76
2021/03/18 08:21:01;;;;;;;3.58;2.20;;;5.70;95.50;;;;;;5005262;28;20069;-76
2021/03/18 08:23:27;;;;;;;9.00;3.25;;;5.60;95.30;;;;;;5013271;28;20079;-76
2021/03/18 08:25:57;;;;;;;4.32;1.52;;;5.70;96.60;;;;;;5012633;28;20030;-76
2021/03/18 08:28:49;;;;;;;;;;;5.70;95.10;;;;;;5013949;28;20033;-76
2021/03/18 08:31:40;;;;;;;5.25;1.70;;;5.70;97.00;;;;;;5011723;28;19906;-76
2021/03/18 08:34:06;;;;;;;4.07;1.50;;;5.80;95.80;;;;;;5013212;28;20026;-76
2021/03/18 08:36:34;;;;;;;6.50;2.55;;;5.90;95.00;;;;;;5013264;28;20367;-75
2021/03/18 08:39:07;;;;;;;5.68;1.83;;;6.00;95.00;;;;;;5013218;28;20040;-76
2021/03/18 08:41:42;;;;;;;11.43;2.45;;;6.00;94.50;;;;;;5012519;28;20235;-76
2021/03/18 08:44:20;;;;;;;4.55;2.05;;;6.00;93.90;;;;;;5013301;28;20060;-76
2021/03/18 08:46:50;;;;;;;8.88;2.33;;;6.00;94.30;;;;;;5012768;28;20018;-76
2021/03/18 08:49:41;;;;;;;7.50;2.42;;;6.10;93.50;;;;;;5012994;28;20029;-76
2021/03/18 08:52:18;;;;;;;6.43;1.80;;;6.30;94.00;;;;;;5012868;28;20046;-76
2021/03/18 08:54:49;;;;;;;2.75;1.73;;;6.50;94.20;;;;;;5012806;28;20030;-76
2021/03/18 08:57:20;;;;;;;5.40;1.98;;;6.50;93.30;;;;;;5013312;28;20133;-76
2021/03/18 08:59:56;;;;;;;8.18;1.73;;;6.50;93.00;;;;;;5016858;28;20080;-76
2021/03/18 09:02:30;;;;;;;11.68;3.33;;;6.40;93.80;;;;;;5017321;28;20045;-76
2021/03/18 09:04:56;;;;;;;3.17;1.90;;;6.40;94.60;;;;;;5016715;28;20030;-76
2021/03/18 09:07:27;;;;;;;5.72;2.20;;;6.30;95.10;;;;;;5017007;28;20105;-76
2021/03/18 09:10:08;;;;;;;6.93;2.20;;;6.20;93.60;;;;;;5016302;28;20030;-76
2021/03/18 09:12:39;;;;;;;4.45;1.90;;;6.10;93.90;;;;;;5016709;28;20038;-76
2021/03/18 09:15:10;;;;;;;5.72;1.92;;;6.10;94.30;;;;;;5016906;28;20030;-76
2021/03/18 09:17:36;;;;;;;4.25;2.45;;;6.00;93.20;;;;;;5017057;28;20014;-76
2021/03/18 09:20:04;;;;;;;5.72;2.15;;;5.90;92.90;;;;;;5016258;28;20506;-76
2021/03/18 09:22:30;;;;;;;4.65;1.50;;;6.10;93.40;;;;;;5016373;28;20030;-76
2021/03/18 09:24:58;;;;;;;10.57;2.72;;;6.20;93.00;;;;;;5015880;28;20033;-76
2021/03/18 09:27:24;;;;;;;5.40;1.83;;;6.20;92.40;;;;;;5016594;28;20370;-76
2021/03/18 09:29:50;;;;;;;3.45;1.45;;;6.30;92.30;;;;;;5016650;28;20131;-76
2021/03/18 09:32:16;;;;;;;5.20;1.80;;;6.30;91.10;;;;;;5016478;28;20474;-76
2021/03/18 09:34:44;;;;;;;3.47;1.60;;;6.40;91.00;;;;;;5016088;28;20034;-76
2021/03/18 09:37:11;;;;;;;8.13;2.22;;;6.50;92.00;;;;;;5016020;28;20429;-76
2021/03/18 09:39:38;;;;;;;5.90;2.17;;;6.60;92.60;;;;;;5016095;28;20030;-76
2021/03/18 09:42:07;;;;;;;9.65;2.95;;;6.90;90.90;;;;;;5016336;28;20516;-76
2021/03/18 09:44:33;;;;;;;6.03;1.88;;;7.10;92.10;;;;;;5015249;28;20022;-76
2021/03/18 09:47:00;;;;;;;7.22;2.63;;;7.30;90.50;;;;;;5015813;28;20022;-76
2021/03/18 09:49:30;;;;;;;7.60;1.98;;;7.20;92.00;;;;;;5016260;28;20029;-76
2021/03/18 09:51:57;;;;;;;5.43;2.25;;;7.30;90.90;;;;;;5014894;28;20065;-76
2021/03/18 09:54:23;;;;;;;6.70;2.17;;;7.60;91.30;;;;;;5014428;28;20065;-76
2021/03/18 09:56:53;;;;;;;5.50;1.63;;;7.40;85.00;;;;;;5014933;28;20029;-76
2021/03/18 09:59:23;;;;;;;6.38;2.72;;;7.40;85.10;;;;;;5014280;28;20394;-76
2021/03/18 10:01:49;;;;;;;6.68;2.30;;;7.10;88.40;;;;;;5014446;28;20030;-76
2021/03/18 10:04:17;;;;;;;5.53;2.05;;;7.20;89.30;;;;;;5014806;28;20026;-76
2021/03/18 10:06:52;;;;;;;6.82;2.00;;;7.20;86.20;;;;;;5014628;28;20460;-76
2021/03/18 10:09:26;;;;;;;5.80;1.90;;;7.30;90.50;;;;;;5014293;28;20021;-76
2021/03/18 10:11:54;;;;;;;6.15;2.22;;;7.40;88.00;;;;;;5014307;28;20057;-76
2021/03/18 10:14:24;;;;;;;4.10;2.22;;;7.50;86.00;;;;;;5014251;28;20033;-76
2021/03/18 10:16:50;;;;;;;9.48;2.63;;;7.40;89.30;;;;;;5014815;28;20026;-76
2021/03/18 10:19:23;;;;;;;9.32;2.95;;;7.40;84.90;;;;;;5014336;28;20030;-76
2021/03/18 10:21:49;;;;;;;6.10;1.95;;;7.40;88.20;;;;;;5013786;28;20060;-76
2021/03/18 10:24:15;;;;;;;8.65;2.33;;;7.40;86.80;;;;;;5014062;28;20071;-76
2021/03/18 10:26:43;;;;;;;5.93;2.15;;;7.30;87.30;;;;;;5014077;28;20026;-76
2021/03/18 10:29:10;;;;;;;3.80;1.98;;;7.40;86.10;;;;;;5014314;28;20487;-76
2021/03/18 10:31:38;;;;;;;7.20;1.95;;;7.60;90.40;;;;;;5014601;28;20172;-76
2021/03/18 10:34:05;;;;;;;5.85;1.90;;;7.60;86.30;;;;;;4994718;28;20387;-76
2021/03/18 10:36:38;;;;;;;7.75;2.42;;;7.50;86.90;;;;;;5013503;28;20144;-76
2021/03/18 10:39:07;;;;;;;6.28;2.08;;;7.30;90.70;;;;;;5014146;28;20026;-76
2021/03/18 10:41:34;;;;;;;4.95;2.13;;;7.20;88.40;;;;;;5014280;28;20478;-76
2021/03/18 10:44:00;;;;;;;3.97;2.08;;;7.20;87.10;;;;;;5013381;28;20057;-76
2021/03/18 10:46:36;;;;;;;3.63;1.80;;;7.20;86.60;;;;;;5013817;28;20061;-76
2021/03/18 10:49:05;;;;;;;3.53;1.85;;;7.30;85.40;;;;;;5014237;28;20029;-76
2021/03/18 10:51:40;;;;;;;6.63;2.65;;;7.50;84.50;;;;;;4985760;28;826982;-76
2021/03/18 10:54:06;;;;;;;4.28;2.28;;;7.70;82.00;;;;;;5015001;28;20042;-77
2021/03/18 10:56:32;;;;;;;5.68;2.20;;;7.70;85.90;;;;;;5014702;28;20030;-76
2021/03/18 10:59:12;;;;;;;6.30;2.10;;;7.60;82.90;;;;;;5015024;28;20034;-76
2021/03/18 11:01:37;;;;;;;7.47;3.10;;;7.80;82.40;;;;;;5014861;28;20084;-76
2021/03/18 11:04:05;;;;;;;6.50;3.75;;;8.00;84.00;;;;;;5014762;28;20026;-76
2021/03/18 11:06:31;;;;;;;6.53;2.55;;;8.30;83.00;;;;;;5014258;28;20018;-76
2021/03/18 11:08:58;;;;;;;5.65;2.38;;;9.60;76.80;;;;;;5014230;28;20075;-76
2021/03/18 11:11:27;;;;;;;5.85;2.33;;;9.70;74.60;;;;;;5014240;28;20049;-76
2021/03/18 11:14:05;;;;;;;5.85;2.42;;;9.80;72.30;;;;;;5014616;28;20492;-76
2021/03/18 11:16:31;;;;;;;6.03;2.90;;;11.50;68.20;;;;;;5014346;28;20034;-76
2021/03/18 11:19:03;;;;;;;7.22;2.47;;;10.40;70.00;;;;;;5014570;28;20504;-76
2021/03/18 11:21:32;;;;;;;6.90;2.22;;;10.20;70.40;;;;;;5013160;28;20029;-76
2021/03/18 11:24:09;;;;;;;4.93;2.13;;;9.60;69.90;;;;;;5014308;28;20018;-76
2021/03/18 11:26:37;;;;;;;6.50;2.38;;;9.70;71.30;;;;;;5014256;28;20030;-76
2021/03/18 11:29:09;;;;;;;5.80;2.00;;;12.60;67.40;;;;;;5014278;28;20061;-76
2021/03/18 11:31:38;;;;;;;2.85;2.40;;;11.70;64.80;;;;;;5014394;28;20440;-76
2021/03/18 11:34:18;;;;;;;5.30;2.70;;;14.80;59.60;;;;;;5013844;28;20026;-76
2021/03/18 11:36:49;;;;;;;6.20;2.70;;;12.70;58.30;;;;;;5013839;28;20068;-76
2021/03/18 11:39:18;;;;;;;7.28;2.83;;;11.30;64.80;;;;;;5014177;28;20026;-76
2021/03/18 11:41:45;;;;;;;4.50;2.15;;;11.10;67.50;;;;;;5014224;28;20021;-75
2021/03/18 11:44:14;;;;;;;4.40;2.20;;;11.30;64.90;;;;;;5014155;28;20026;-76
2021/03/18 11:46:40;;;;;;;4.07;2.03;;;11.00;65.60;;;;;;5013787;28;20030;-76
2021/03/18 11:49:06;;;;;;;6.97;2.38;;;11.20;63.10;;;;;;5013602;28;20013;-76
2021/03/18 11:51:33;;;;;;;8.38;2.70;;;11.40;64.60;;;;;;5013628;28;20038;-76
2021/03/18 11:53:58;;;;;;;5.07;2.00;;;11.30;63.40;;;;;;5013510;28;20121;-76
2021/03/18 11:56:25;;;;;;;3.30;2.28;;;10.80;64.00;;;;;;5013366;28;20462;-76
2021/03/18 11:58:50;;;;;;;4.55;1.98;;;10.00;65.70;;;;;;5013891;28;20054;-76
2021/03/18 12:01:17;;;;;;;3.15;1.50;;;9.60;66.40;;;;;;5013388;28;20068;-76
2021/03/18 12:03:43;;;;;;;2.55;1.60;;;9.40;68.00;;;;;;5013477;28;20351;-76
2021/03/18 12:06:09;;;;;;;2.78;1.95;;;9.40;68.90;;;;;;5013723;28;20030;-76
2021/03/18 12:08:35;;;;;;;2.58;2.13;;;9.30;67.80;;;;;;5013801;28;20132;-76
2021/03/18 12:11:00;;;;;;;5.30;2.20;;;10.40;65.20;;;;;;5013759;28;20033;-75
2021/03/18 12:13:26;;;;;;;3.58;1.92;;;10.90;62.80;;;;;;5013366;28;20141;-76
2021/03/18 12:15:52;;;;;;;2.50;1.83;;;10.70;63.50;;;;;;5013537;28;20028;-76
2021/03/18 12:18:18;;;;;;;2.85;1.73;;;10.10;64.60;;;;;;5013064;28;20033;-76
2021/03/18 12:20:44;;;;;;;5.40;2.63;;;9.90;64.40;;;;;;5013553;28;20022;-76
2021/03/18 12:23:10;;;;;;;5.07;2.00;;;10.20;63.40;;;;;;5013311;28;20030;-76
2021/03/18 12:25:36;;;;;;;6.85;2.53;;;10.20;65.70;;;;;;5012902;28;20490;-76
2021/03/18 12:28:02;;;;;;;3.83;2.22;;;10.20;64.60;;;;;;5013332;28;20057;-76
2021/03/18 12:30:28;;;;;;;2.80;1.67;;;10.10;65.70;;;;;;5013063;28;20030;-76
2021/03/18 12:32:54;;;;;;;5.97;1.92;;;13.60;64.10;;;;;;5003170;28;20430;-76
2021/03/18 12:35:21;;;;;;;5.25;2.15;;;15.50;54.00;;;;;;4999816;28;20042;-76
2021/03/18 12:37:50;;;;;;;2.58;1.88;;;14.30;52.90;;;;;;5013327;28;20026;-77
2021/03/18 12:40:17;;;;;;;2.80;2.03;;;13.80;54.00;;;;;;5013188;28;20033;-76
2021/03/18 12:42:43;;;;;;;4.45;2.85;;;13.20;54.90;;;;;;5013227;28;20105;-76
2021/03/18 12:45:12;;;;;;;3.33;2.45;;;13.50;55.00;;;;;;5013310;28;20064;-76
2021/03/18 12:47:38;;;;;;;3.07;2.30;;;12.70;55.80;;;;;;5012960;28;20054;-76
2021/03/18 12:50:07;;;;;;;6.75;2.10;;;11.80;60.00;;;;;;5012943;28;20092;-76
2021/03/18 12:52:33;;;;;;;4.65;1.70;;;11.30;62.50;;;;;;5013024;28;20513;-76
2021/03/18 12:54:58;;;;;;;7.43;1.95;;;10.70;62.00;;;;;;5013234;28;20061;-76
2021/03/18 12:57:24;;;;;;;3.55;1.80;;;10.30;63.50;;;;;;5013189;28;20033;-76
2021/03/18 12:59:50;;;;;;;4.07;2.78;;;10.40;67.20;;;;;;5012880;28;20030;-76
2021/03/18 13:02:16;;;;;;;4.40;2.30;;;10.40;64.10;;;;;;5012558;28;20433;-76
2021/03/18 13:04:41;;;;;;;6.35;1.98;;;10.40;65.60;;;;;;5012700;28;20072;-76
2021/03/18 13:07:07;;;;;;;3.30;1.77;;;10.10;66.50;;;;;;5012838;28;20022;-76